createdAt,value
2023-07-17T00:00:50.662Z,500.00
2023-07-17T00:01:50.767Z,500.00
2023-07-17T00:02:50.708Z,500.00
2023-07-17T00:03:50.764Z,434.00
2023-07-17T00:04:50.822Z,400.00
2023-07-17T00:05:50.872Z,400.00
2023-07-17T00:06:50.939Z,400.00
2023-07-17T00:07:51.001Z,400.00
2023-07-17T00:08:51.051Z,416.00
2023-07-17T00:09:51.124Z,435.00
2023-07-17T00:10:51.186Z,462.00
2023-07-17T00:11:51.232Z,500.00
2023-07-17T00:12:51.281Z,500.00
2023-07-17T00:13:51.344Z,501.00
2023-07-17T00:14:51.357Z,500.00
2023-07-17T00:15:51.372Z,500.00
2023-07-17T00:16:51.398Z,499.00
2023-07-17T00:17:51.404Z,500.00
2023-07-17T00:18:51.385Z,500.00
2023-07-17T00:19:51.384Z,500.00
2023-07-17T00:20:51.392Z,500.00
2023-07-17T00:21:51.387Z,502.00
2023-07-17T00:22:51.459Z,500.00
2023-07-17T00:23:51.399Z,500.00
2023-07-17T00:24:51.378Z,501.00
2023-07-17T00:25:51.382Z,500.00
2023-07-17T00:26:51.389Z,500.00
2023-07-17T00:27:51.378Z,505.00
2023-07-17T00:28:51.379Z,500.00
2023-07-17T00:29:51.434Z,503.00
2023-07-17T00:30:51.452Z,504.00
2023-07-17T00:31:51.436Z,502.00
2023-07-17T00:32:51.495Z,501.00
2023-07-17T00:33:51.478Z,501.00
2023-07-17T00:34:51.506Z,500.00
2023-07-17T00:35:51.536Z,503.00
2023-07-17T00:36:51.592Z,502.00
2023-07-17T00:37:51.593Z,503.00
2023-07-17T00:38:51.612Z,504.00
2023-07-17T00:39:51.593Z,506.00
2023-07-17T00:40:51.635Z,503.00
2023-07-17T00:41:51.602Z,504.00
2023-07-17T00:42:51.620Z,503.00
2023-07-17T00:43:51.637Z,503.00
2023-07-17T00:44:51.637Z,508.00
2023-07-17T00:45:51.765Z,500.00
2023-07-17T00:46:51.679Z,504.00
2023-07-17T00:47:51.687Z,505.00
2023-07-17T00:48:51.627Z,501.00
2023-07-17T00:49:51.629Z,504.00
2023-07-17T00:50:51.615Z,505.00
2023-07-17T00:51:51.629Z,507.00
2023-07-17T00:52:51.637Z,504.00
2023-07-17T00:53:51.676Z,507.00
2023-07-17T00:54:51.666Z,509.00
2023-07-17T00:55:51.659Z,507.00
2023-07-17T00:56:51.662Z,504.00
2023-07-17T00:57:51.667Z,507.00
2023-07-17T00:58:51.668Z,508.00
2023-07-17T00:59:51.688Z,508.00
2023-07-17T01:00:51.742Z,506.00
2023-07-17T01:01:51.755Z,507.00
2023-07-17T01:02:51.923Z,504.00
2023-07-17T01:03:51.688Z,505.00
2023-07-17T01:04:51.734Z,508.00
2023-07-17T01:05:51.748Z,504.00
2023-07-17T01:06:51.759Z,507.00
2023-07-17T01:07:51.784Z,509.00
2023-07-17T01:08:51.815Z,505.00
2023-07-17T01:09:51.844Z,507.00
2023-07-17T01:10:51.857Z,507.00
2023-07-17T01:11:51.892Z,507.00
2023-07-17T01:12:51.903Z,505.00
2023-07-17T01:13:51.926Z,505.00
2023-07-17T01:14:51.955Z,505.00
2023-07-17T01:15:51.967Z,507.00
2023-07-17T01:16:52.014Z,503.00
2023-07-17T01:17:52.102Z,511.00
2023-07-17T01:18:52.044Z,505.00
2023-07-17T01:19:52.075Z,507.00
2023-07-17T01:20:52.085Z,500.00
2023-07-17T01:21:52.094Z,512.00
2023-07-17T01:22:52.106Z,506.00
2023-07-17T01:23:52.108Z,501.00
2023-07-17T01:24:52.124Z,503.00
2023-07-17T01:25:52.156Z,505.00
2023-07-17T01:26:52.160Z,505.00
2023-07-17T01:27:52.192Z,506.00
2023-07-17T01:28:52.203Z,503.00
2023-07-17T01:29:52.224Z,505.00
2023-07-17T01:30:52.287Z,507.00
2023-07-17T01:31:52.273Z,500.00
2023-07-17T01:32:52.324Z,506.00
2023-07-17T01:33:52.325Z,505.00
2023-07-17T01:34:52.330Z,509.00
2023-07-17T01:35:52.369Z,509.00
2023-07-17T01:36:52.368Z,511.00
2023-07-17T01:37:52.365Z,513.00
2023-07-17T01:38:52.353Z,504.00
2023-07-17T01:39:52.371Z,507.00
2023-07-17T01:40:52.386Z,508.00
2023-07-17T01:41:52.377Z,508.00
2023-07-17T01:42:52.381Z,503.00
2023-07-17T01:43:52.393Z,502.00
2023-07-17T01:44:52.400Z,512.00
2023-07-17T01:45:52.404Z,503.00
2023-07-17T01:46:52.440Z,506.00
2023-07-17T01:47:52.500Z,505.00
2023-07-17T01:48:52.437Z,510.00
2023-07-17T01:49:52.466Z,505.00
2023-07-17T01:50:52.452Z,507.00
2023-07-17T01:51:52.444Z,506.00
2023-07-17T01:52:52.451Z,505.00
2023-07-17T01:53:52.459Z,504.00
2023-07-17T01:54:52.459Z,505.00
2023-07-17T01:55:52.471Z,504.00
2023-07-17T01:56:52.484Z,506.00
2023-07-17T01:57:52.487Z,504.00
2023-07-17T01:58:52.512Z,505.00
2023-07-17T01:59:52.508Z,501.00
2023-07-17T02:00:52.505Z,512.00
2023-07-17T02:01:52.534Z,501.00
2023-07-17T02:02:52.624Z,503.00
2023-07-17T02:03:52.523Z,504.00
2023-07-17T02:04:52.539Z,511.00
2023-07-17T02:05:52.570Z,510.00
2023-07-17T02:06:52.536Z,510.00
2023-07-17T02:07:52.545Z,510.00
2023-07-17T02:08:52.558Z,510.00
2023-07-17T02:09:52.574Z,514.00
2023-07-17T02:10:52.576Z,509.00
2023-07-17T02:11:52.589Z,509.00
2023-07-17T02:12:52.608Z,509.00
2023-07-17T02:13:53.165Z,504.00
2023-07-17T02:14:52.623Z,508.00
2023-07-17T02:15:52.610Z,511.00
2023-07-17T02:16:52.665Z,511.00
2023-07-17T02:17:52.702Z,506.00
2023-07-17T02:18:52.645Z,506.00
2023-07-17T02:19:52.637Z,510.00
2023-07-17T02:20:52.657Z,503.00
2023-07-17T02:21:52.776Z,502.00
2023-07-17T02:22:52.683Z,507.00
2023-07-17T02:23:52.704Z,511.00
2023-07-17T02:24:52.680Z,511.00
2023-07-17T02:25:52.689Z,510.00
2023-07-17T02:26:52.695Z,505.00
2023-07-17T02:27:52.707Z,513.00
2023-07-17T02:28:52.714Z,508.00
2023-07-17T02:29:52.725Z,509.00
2023-07-17T02:30:52.726Z,509.00
2023-07-17T02:31:52.772Z,508.00
2023-07-17T02:32:52.867Z,505.00
2023-07-17T02:33:52.735Z,509.00
2023-07-17T02:34:52.777Z,508.00
2023-07-17T02:35:52.761Z,514.00
2023-07-17T02:36:52.760Z,509.00
2023-07-17T02:37:52.793Z,514.00
2023-07-17T02:38:52.779Z,511.00
2023-07-17T02:39:52.821Z,505.00
2023-07-17T02:40:52.819Z,504.00
2023-07-17T02:41:52.821Z,503.00
2023-07-17T02:42:52.838Z,506.00
2023-07-17T02:43:52.830Z,511.00
2023-07-17T02:44:52.836Z,508.00
2023-07-17T02:45:52.856Z,509.00
2023-07-17T02:46:52.861Z,510.00
2023-07-17T02:47:52.903Z,505.00
2023-07-17T02:48:52.887Z,516.00
2023-07-17T02:49:52.893Z,514.00
2023-07-17T02:50:52.902Z,511.00
2023-07-17T02:51:52.904Z,514.00
2023-07-17T02:52:52.926Z,514.00
2023-07-17T02:53:52.970Z,512.00
2023-07-17T02:54:52.950Z,513.00
2023-07-17T02:55:52.953Z,509.00
2023-07-17T02:56:52.959Z,510.00
2023-07-17T02:57:52.971Z,507.00
2023-07-17T02:58:52.979Z,508.00
2023-07-17T02:59:52.990Z,509.00
2023-07-17T03:00:53.069Z,508.00
2023-07-17T03:01:53.158Z,507.00
2023-07-17T03:02:53.085Z,510.00
2023-07-17T03:03:53.034Z,513.00
2023-07-17T03:04:53.051Z,512.00
2023-07-17T03:05:53.203Z,508.00
2023-07-17T03:06:53.082Z,512.00
2023-07-17T03:07:53.098Z,509.00
2023-07-17T03:08:53.114Z,507.00
2023-07-17T03:09:53.157Z,514.00
2023-07-17T03:10:53.139Z,512.00
2023-07-17T03:11:53.159Z,509.00
2023-07-17T03:12:53.198Z,513.00
2023-07-17T03:13:53.169Z,509.00
2023-07-17T03:14:53.199Z,513.00
2023-07-17T03:15:53.233Z,512.00
2023-07-17T03:16:53.221Z,516.00
2023-07-17T03:17:53.249Z,513.00
2023-07-17T03:18:53.242Z,513.00
2023-07-17T03:19:53.263Z,514.00
2023-07-17T03:20:53.281Z,514.00
2023-07-17T03:21:53.280Z,507.00
2023-07-17T03:22:53.300Z,507.00
2023-07-17T03:23:53.318Z,510.00
2023-07-17T03:24:53.326Z,515.00
2023-07-17T03:25:53.363Z,509.00
2023-07-17T03:26:53.359Z,510.00
2023-07-17T03:27:53.384Z,514.00
2023-07-17T03:28:53.406Z,513.00
2023-07-17T03:29:53.404Z,513.00
2023-07-17T03:30:53.417Z,511.00
2023-07-17T03:31:53.451Z,512.00
2023-07-17T03:32:53.504Z,512.00
2023-07-17T03:33:53.520Z,515.00
2023-07-17T03:34:53.492Z,514.00
2023-07-17T03:35:53.496Z,507.00
2023-07-17T03:36:53.510Z,508.00
2023-07-17T03:37:53.526Z,507.00
2023-07-17T03:38:53.548Z,516.00
2023-07-17T03:39:53.566Z,508.00
2023-07-17T03:40:53.591Z,512.00
2023-07-17T03:41:53.634Z,509.00
2023-07-17T03:42:53.624Z,511.00
2023-07-17T03:43:53.640Z,515.00
2023-07-17T03:44:53.656Z,513.00
2023-07-17T03:45:53.696Z,505.00
2023-07-17T03:46:53.797Z,513.00
2023-07-17T03:47:53.786Z,512.00
2023-07-17T03:48:53.724Z,509.00
2023-07-17T03:49:53.754Z,506.00
2023-07-17T03:50:53.765Z,513.00
2023-07-17T03:51:53.781Z,514.00
2023-07-17T03:52:53.809Z,516.00
2023-07-17T03:53:53.822Z,514.00
2023-07-17T03:54:53.832Z,512.00
2023-07-17T03:55:53.852Z,510.00
2023-07-17T03:56:53.868Z,513.00
2023-07-17T03:57:53.912Z,512.00
2023-07-17T03:58:53.908Z,509.00
2023-07-17T03:59:53.924Z,511.00
2023-07-17T04:00:53.965Z,519.00
2023-07-17T04:01:53.968Z,514.00
2023-07-17T04:02:54.041Z,513.00
2023-07-17T04:03:54.075Z,508.00
2023-07-17T04:04:54.074Z,511.00
2023-07-17T04:05:54.060Z,513.00
2023-07-17T04:06:54.078Z,515.00
2023-07-17T04:07:54.104Z,509.00
2023-07-17T04:08:54.125Z,515.00
2023-07-17T04:09:54.149Z,514.00
2023-07-17T04:10:54.180Z,509.00
2023-07-17T04:11:54.218Z,509.00
2023-07-17T04:12:54.222Z,511.00
2023-07-17T04:13:54.288Z,509.00
2023-07-17T04:14:54.266Z,513.00
2023-07-17T04:15:54.305Z,508.00
2023-07-17T04:16:54.350Z,511.00
2023-07-17T04:17:54.395Z,508.00
2023-07-17T04:18:54.383Z,514.00
2023-07-17T04:19:54.371Z,506.00
2023-07-17T04:20:54.394Z,512.00
2023-07-17T04:21:54.416Z,512.00
2023-07-17T04:22:54.475Z,511.00
2023-07-17T04:23:54.514Z,509.00
2023-07-17T04:24:54.486Z,508.00
2023-07-17T04:25:54.497Z,507.00
2023-07-17T04:26:54.583Z,513.00
2023-07-17T04:27:54.541Z,507.00
2023-07-17T04:28:54.574Z,513.00
2023-07-17T04:29:54.608Z,514.00
2023-07-17T04:30:54.652Z,508.00
2023-07-17T04:31:54.623Z,507.00
2023-07-17T04:32:54.662Z,512.00
2023-07-17T04:33:54.657Z,513.00
2023-07-17T04:34:54.681Z,506.00
2023-07-17T04:35:54.700Z,509.00
2023-07-17T04:36:54.724Z,517.00
2023-07-17T04:37:54.747Z,511.00
2023-07-17T04:38:54.748Z,510.00
2023-07-17T04:39:54.767Z,507.00
2023-07-17T04:40:54.803Z,507.00
2023-07-17T04:41:54.810Z,507.00
2023-07-17T04:42:54.833Z,515.00
2023-07-17T04:43:54.852Z,512.00
2023-07-17T04:44:54.883Z,510.00
2023-07-17T04:45:54.906Z,512.00
2023-07-17T04:46:55.028Z,507.00
2023-07-17T04:47:55.081Z,509.00
2023-07-17T04:48:54.932Z,510.00
2023-07-17T04:49:54.962Z,510.00
2023-07-17T04:50:55.007Z,510.00
2023-07-17T04:51:55.008Z,511.00
2023-07-17T04:52:55.014Z,513.00
2023-07-17T04:53:55.048Z,511.00
2023-07-17T04:54:55.070Z,511.00
2023-07-17T04:55:55.100Z,510.00
2023-07-17T04:56:55.121Z,508.00
2023-07-17T04:57:55.145Z,510.00
2023-07-17T04:58:55.165Z,506.00
2023-07-17T04:59:55.185Z,513.00
2023-07-17T05:00:55.266Z,503.00
2023-07-17T05:01:55.255Z,507.00
2023-07-17T05:02:55.374Z,513.00
2023-07-17T05:03:55.346Z,511.00
2023-07-17T05:04:55.309Z,513.00
2023-07-17T05:05:55.338Z,508.00
2023-07-17T05:06:55.361Z,508.00
2023-07-17T05:07:55.400Z,506.00
2023-07-17T05:08:55.397Z,508.00
2023-07-17T05:09:55.418Z,508.00
2023-07-17T05:10:55.517Z,509.00
2023-07-17T05:11:55.477Z,512.00
2023-07-17T05:12:55.500Z,509.00
2023-07-17T05:13:55.532Z,513.00
2023-07-17T05:14:55.550Z,513.00
2023-07-17T05:15:55.575Z,514.00
2023-07-17T05:16:55.747Z,512.00
2023-07-17T05:17:55.690Z,514.00
2023-07-17T05:18:55.647Z,520.00
2023-07-17T05:19:55.668Z,519.00
2023-07-17T05:20:55.714Z,521.00
2023-07-17T05:21:55.717Z,522.00
2023-07-17T05:22:55.799Z,520.00
2023-07-17T05:23:55.751Z,524.00
2023-07-17T05:24:55.765Z,521.00
2023-07-17T05:25:55.798Z,522.00
2023-07-17T05:26:55.831Z,520.00
2023-07-17T05:27:55.842Z,522.00
2023-07-17T05:28:55.867Z,521.00
2023-07-17T05:29:55.897Z,524.00
2023-07-17T05:30:55.968Z,524.00
2023-07-17T05:31:55.931Z,526.00
2023-07-17T05:32:56.015Z,529.00
2023-07-17T05:33:56.001Z,529.00
2023-07-17T05:34:56.003Z,519.00
2023-07-17T05:35:56.048Z,531.00
2023-07-17T05:36:56.039Z,529.00
2023-07-17T05:37:56.049Z,530.00
2023-07-17T05:38:56.089Z,526.00
2023-07-17T05:39:56.106Z,527.00
2023-07-17T05:40:56.125Z,524.00
2023-07-17T05:41:56.163Z,525.00
2023-07-17T05:42:56.159Z,528.00
2023-07-17T05:43:56.184Z,526.00
2023-07-17T05:44:56.201Z,531.00
2023-07-17T05:45:56.227Z,522.00
2023-07-17T05:46:56.378Z,524.00
2023-07-17T05:47:56.320Z,525.00
2023-07-17T05:48:56.305Z,531.00
2023-07-17T05:49:56.371Z,532.00
2023-07-17T05:50:56.386Z,536.00
2023-07-17T05:51:56.439Z,541.00
2023-07-17T05:52:56.486Z,550.00
2023-07-17T05:53:56.564Z,555.00
2023-07-17T05:54:57.078Z,580.00
2023-07-17T05:55:56.631Z,604.00
2023-07-17T05:56:56.745Z,645.00
2023-07-17T05:57:56.734Z,702.00
2023-07-17T05:58:56.784Z,782.00
2023-07-17T05:59:56.878Z,851.00
2023-07-17T06:00:56.930Z,919.00
2023-07-17T06:01:56.973Z,978.00
2023-07-17T06:02:57.059Z,1062.00
2023-07-17T06:03:57.212Z,1078.00
2023-07-17T06:04:57.377Z,1078.00
2023-07-17T06:05:57.201Z,1103.00
2023-07-17T06:06:57.192Z,1088.00
2023-07-17T06:07:57.223Z,1106.00
2023-07-17T06:08:57.254Z,1096.00
2023-07-17T06:09:57.284Z,1082.00
2023-07-17T06:10:57.306Z,1101.00
2023-07-17T06:11:57.334Z,1092.00
2023-07-17T06:12:57.355Z,1077.00
2023-07-17T06:13:57.398Z,1085.00
2023-07-17T06:14:57.469Z,1077.00
2023-07-17T06:15:57.544Z,1071.00
2023-07-17T06:16:57.710Z,1056.00
2023-07-17T06:17:57.741Z,1069.00
2023-07-17T06:18:57.757Z,1042.00
2023-07-17T06:19:57.817Z,1010.00
2023-07-17T06:20:57.890Z,1026.00
2023-07-17T06:21:58.027Z,1012.00
2023-07-17T06:22:58.076Z,1013.00
2023-07-17T06:23:58.052Z,1008.00
2023-07-17T06:24:58.120Z,1010.00
2023-07-17T06:25:58.148Z,1011.00
2023-07-17T06:26:58.211Z,1054.00
2023-07-17T06:27:58.292Z,1063.00
2023-07-17T06:28:58.319Z,1093.00
2023-07-17T06:29:58.348Z,1137.00
2023-07-17T06:30:58.393Z,1169.00
2023-07-17T06:31:58.473Z,1230.00
2023-07-17T06:32:58.550Z,1252.00
2023-07-17T06:33:58.520Z,1273.00
2023-07-17T06:34:58.564Z,1267.00
2023-07-17T06:35:58.602Z,1269.00
2023-07-17T06:36:58.662Z,1300.00
2023-07-17T06:37:58.756Z,1281.00
2023-07-17T06:38:58.761Z,1220.00
2023-07-17T06:39:58.769Z,1208.00
2023-07-17T06:40:58.793Z,1162.00
2023-07-17T06:41:58.826Z,1131.00
2023-07-17T06:42:58.874Z,1095.00
2023-07-17T06:43:58.874Z,1091.00
2023-07-17T06:45:01.506Z,1081.00
2023-07-17T06:45:58.971Z,1081.00
2023-07-17T06:46:58.905Z,1082.00
2023-07-17T06:47:58.993Z,1081.00
2023-07-17T06:48:58.912Z,1080.00
2023-07-17T06:49:58.930Z,1050.00
2023-07-17T06:50:58.937Z,1062.00
2023-07-17T06:51:58.956Z,1063.00
2023-07-17T06:52:58.971Z,1064.00
2023-07-17T06:53:59.000Z,1067.00
2023-07-17T06:55:03.830Z,1072.00
2023-07-17T06:55:58.947Z,1074.00
2023-07-17T06:56:58.944Z,1077.00
2023-07-17T06:57:58.946Z,1074.00
2023-07-17T06:58:58.983Z,1076.00
2023-07-17T06:59:58.989Z,1056.00
2023-07-17T07:00:58.960Z,1050.00
2023-07-17T07:01:59.383Z,1057.00
2023-07-17T07:02:59.058Z,1036.00
2023-07-17T07:03:59.035Z,1037.00
2023-07-17T07:04:58.949Z,1025.00
2023-07-17T07:05:58.965Z,1001.00
2023-07-17T07:06:58.946Z,1004.00
2023-07-17T07:07:58.946Z,992.00
2023-07-17T07:08:58.957Z,969.00
2023-07-17T07:09:59.043Z,968.00
2023-07-17T07:10:58.965Z,940.00
2023-07-17T07:11:58.978Z,928.00
2023-07-17T07:12:59.001Z,922.00
2023-07-17T07:13:58.977Z,897.00
2023-07-17T07:14:58.968Z,893.00
2023-07-17T07:15:59.012Z,870.00
2023-07-17T07:16:59.014Z,874.00
2023-07-17T07:17:59.025Z,874.00
2023-07-17T07:18:58.954Z,844.00
2023-07-17T07:19:58.971Z,842.00
2023-07-17T07:20:58.949Z,852.00
2023-07-17T07:21:58.955Z,839.00
2023-07-17T07:22:58.990Z,839.00
2023-07-17T07:23:58.932Z,834.00
2023-07-17T07:24:58.934Z,831.00
2023-07-17T07:25:58.966Z,825.00
2023-07-17T07:26:58.940Z,827.00
2023-07-17T07:27:58.939Z,831.00
2023-07-17T07:28:58.932Z,819.00
2023-07-17T07:29:58.938Z,818.00
2023-07-17T07:30:58.976Z,796.00
2023-07-17T07:31:58.982Z,798.00
2023-07-17T07:32:58.986Z,815.00
2023-07-17T07:33:58.940Z,806.00
2023-07-17T07:34:58.934Z,805.00
2023-07-17T07:35:58.929Z,823.00
2023-07-17T07:36:58.927Z,795.00
2023-07-17T07:37:58.928Z,798.00
2023-07-17T07:38:58.948Z,807.00
2023-07-17T07:39:58.932Z,807.00
2023-07-17T07:40:58.934Z,806.00
2023-07-17T07:41:58.990Z,802.00
2023-07-17T07:42:58.941Z,798.00
2023-07-17T07:43:58.925Z,800.00
2023-07-17T07:44:58.927Z,787.00
2023-07-17T07:45:58.970Z,783.00
2023-07-17T07:46:58.914Z,784.00
2023-07-17T07:47:58.953Z,784.00
2023-07-17T07:48:58.915Z,771.00
2023-07-17T07:49:58.949Z,758.00
2023-07-17T07:50:58.917Z,750.00
2023-07-17T07:51:58.910Z,727.00
2023-07-17T07:52:58.904Z,709.00
2023-07-17T07:53:58.904Z,688.00
2023-07-17T07:55:00.690Z,680.00
2023-07-17T07:55:58.904Z,694.00
2023-07-17T07:56:58.896Z,665.00
2023-07-17T07:57:59.011Z,652.00
2023-07-17T07:58:58.964Z,657.00
2023-07-17T07:59:58.955Z,663.00
2023-07-17T08:00:58.895Z,659.00
2023-07-17T08:01:58.960Z,657.00
2023-07-17T08:02:58.978Z,659.00
2023-07-17T08:03:58.923Z,654.00
2023-07-17T08:04:58.899Z,653.00
2023-07-17T08:05:58.942Z,657.00
2023-07-17T08:06:58.908Z,659.00
2023-07-17T08:07:58.965Z,671.00
2023-07-17T08:08:58.921Z,671.00
2023-07-17T08:09:58.917Z,688.00
2023-07-17T08:10:58.925Z,660.00
2023-07-17T08:11:58.963Z,657.00
2023-07-17T08:12:58.938Z,656.00
2023-07-17T08:13:58.970Z,649.00
2023-07-17T08:14:58.961Z,652.00
2023-07-17T08:15:58.989Z,657.00
2023-07-17T08:16:58.952Z,658.00
2023-07-17T08:17:59.076Z,658.00
2023-07-17T08:18:58.953Z,654.00
2023-07-17T08:19:58.964Z,652.00
2023-07-17T08:20:58.963Z,655.00
2023-07-17T08:21:58.948Z,661.00
2023-07-17T08:22:59.096Z,666.00
2023-07-17T08:23:58.975Z,709.00
2023-07-17T08:24:58.964Z,716.00
2023-07-17T08:25:59.053Z,714.00
2023-07-17T08:27:57.962Z,678.00
2023-07-17T08:28:58.959Z,661.00
2023-07-17T08:29:58.985Z,675.00
2023-07-17T08:30:59.034Z,660.00
2023-07-17T08:31:59.312Z,659.00
2023-07-17T08:32:59.001Z,655.00
2023-07-17T08:33:58.967Z,658.00
2023-07-17T08:34:58.946Z,656.00
2023-07-17T08:35:58.939Z,660.00
2023-07-17T08:36:58.941Z,656.00
2023-07-17T08:37:58.944Z,654.00
2023-07-17T08:38:58.947Z,659.00
2023-07-17T08:39:58.951Z,655.00
2023-07-17T08:40:58.991Z,655.00
2023-07-17T08:41:58.954Z,656.00
2023-07-17T08:42:58.945Z,658.00
2023-07-17T08:43:58.948Z,655.00
2023-07-17T08:44:58.949Z,648.00
2023-07-17T08:46:01.042Z,652.00
2023-07-17T08:46:58.947Z,653.00
2023-07-17T08:47:59.044Z,652.00
2023-07-17T08:48:58.939Z,657.00
2023-07-17T08:49:58.955Z,648.00
2023-07-17T08:50:58.963Z,651.00
2023-07-17T08:51:58.942Z,652.00
2023-07-17T08:52:58.968Z,653.00
2023-07-17T08:54:13.566Z,651.00
2023-07-17T08:54:58.949Z,651.00
2023-07-17T08:55:58.923Z,653.00
2023-07-17T08:56:58.925Z,655.00
2023-07-17T08:57:58.962Z,655.00
2023-07-17T08:58:58.953Z,658.00
2023-07-17T08:59:59.032Z,658.00
2023-07-17T09:00:58.933Z,656.00
2023-07-17T09:01:58.975Z,651.00
2023-07-17T09:02:58.992Z,649.00
2023-07-17T09:03:58.908Z,649.00
2023-07-17T09:04:58.915Z,657.00
2023-07-17T09:05:58.893Z,651.00
2023-07-17T09:06:58.889Z,653.00
2023-07-17T09:07:58.876Z,655.00
2023-07-17T09:08:58.871Z,653.00
2023-07-17T09:09:58.862Z,651.00
2023-07-17T09:10:58.859Z,653.00
2023-07-17T09:11:58.851Z,650.00
2023-07-17T09:12:58.859Z,651.00
2023-07-17T09:13:58.854Z,651.00
2023-07-17T09:14:58.829Z,651.00
2023-07-17T09:15:58.826Z,648.00
2023-07-17T09:16:58.833Z,646.00
2023-07-17T09:17:58.868Z,642.00
2023-07-17T09:18:58.803Z,644.00
2023-07-17T09:19:58.790Z,643.00
2023-07-17T09:20:58.783Z,648.00
2023-07-17T09:21:58.767Z,645.00
2023-07-17T09:22:58.812Z,647.00
2023-07-17T09:23:58.834Z,643.00
2023-07-17T09:24:58.909Z,643.00
2023-07-17T09:25:58.917Z,639.00
2023-07-17T09:26:58.946Z,632.00
2023-07-17T09:27:58.998Z,626.00
2023-07-17T09:28:59.098Z,629.00
2023-07-17T09:29:59.113Z,625.00
2023-07-17T09:30:59.235Z,620.00
2023-07-17T09:31:59.225Z,630.00
2023-07-17T09:32:59.299Z,622.00
2023-07-17T09:33:59.376Z,625.00
2023-07-17T09:34:59.388Z,626.00
2023-07-17T09:35:59.439Z,621.00
2023-07-17T09:36:59.500Z,624.00
2023-07-17T09:37:59.574Z,623.00
2023-07-17T09:38:59.609Z,624.00
2023-07-17T09:39:59.663Z,621.00
2023-07-17T09:40:59.722Z,615.00
2023-07-17T09:41:59.767Z,616.00
2023-07-17T09:42:59.814Z,619.00
2023-07-17T09:43:59.870Z,613.00
2023-07-17T09:44:59.917Z,610.00
2023-07-17T09:45:59.963Z,611.00
2023-07-17T09:47:00.075Z,609.00
2023-07-17T09:48:00.175Z,611.00
2023-07-17T09:49:00.115Z,612.00
2023-07-17T09:50:00.188Z,611.00
2023-07-17T09:51:00.202Z,603.00
2023-07-17T09:52:00.243Z,605.00
2023-07-17T09:53:00.288Z,606.00
2023-07-17T09:54:00.338Z,606.00
2023-07-17T09:55:00.369Z,604.00
2023-07-17T09:56:00.416Z,604.00
2023-07-17T09:57:00.453Z,603.00
2023-07-17T09:58:00.566Z,600.00
2023-07-17T09:59:00.536Z,605.00
2023-07-17T10:00:00.588Z,603.00
2023-07-17T10:01:00.699Z,605.00
2023-07-17T10:02:00.677Z,600.00
2023-07-17T10:03:00.787Z,602.00
2023-07-17T10:04:00.802Z,603.00
2023-07-17T10:05:00.867Z,600.00
2023-07-17T10:06:00.871Z,599.00
2023-07-17T10:07:00.889Z,598.00
2023-07-17T10:08:00.960Z,601.00
2023-07-17T10:09:00.940Z,593.00
2023-07-17T10:10:00.970Z,595.00
2023-07-17T10:11:01.004Z,593.00
2023-07-17T10:12:01.031Z,593.00
2023-07-17T10:13:01.050Z,594.00
2023-07-17T10:14:01.077Z,594.00
2023-07-17T10:15:01.127Z,592.00
2023-07-17T10:16:01.111Z,589.00
2023-07-17T10:17:01.213Z,591.00
2023-07-17T10:18:01.219Z,592.00
2023-07-17T10:19:01.200Z,589.00
2023-07-17T10:20:01.166Z,587.00
2023-07-17T10:21:01.192Z,590.00
2023-07-17T10:22:01.259Z,585.00
2023-07-17T10:23:01.253Z,587.00
2023-07-17T10:24:01.241Z,588.00
2023-07-17T10:25:01.233Z,588.00
2023-07-17T10:26:01.251Z,579.00
2023-07-17T10:27:01.250Z,583.00
2023-07-17T10:28:01.366Z,582.00
2023-07-17T10:29:01.264Z,584.00
2023-07-17T10:30:01.303Z,584.00
2023-07-17T10:31:01.323Z,584.00
2023-07-17T10:32:01.300Z,584.00
2023-07-17T10:33:01.292Z,578.00
2023-07-17T10:34:01.289Z,581.00
2023-07-17T10:35:01.271Z,581.00
2023-07-17T10:36:01.283Z,570.00
2023-07-17T10:37:01.282Z,571.00
2023-07-17T10:38:01.322Z,577.00
2023-07-17T10:39:01.266Z,570.00
2023-07-17T10:40:01.262Z,558.00
2023-07-17T10:41:01.323Z,562.00
2023-07-17T10:42:01.253Z,572.00
2023-07-17T10:43:01.228Z,565.00
2023-07-17T10:44:17.446Z,555.00
2023-07-17T10:45:01.194Z,556.00
2023-07-17T10:46:01.227Z,557.00
2023-07-17T10:47:01.219Z,560.00
2023-07-17T10:48:01.202Z,558.00
2023-07-17T10:49:01.104Z,549.00
2023-07-17T10:50:01.072Z,562.00
2023-07-17T10:51:01.068Z,544.00
2023-07-17T10:52:01.059Z,563.00
2023-07-17T10:53:01.002Z,550.00
2023-07-17T10:54:01.037Z,549.00
2023-07-17T10:55:00.956Z,541.00
2023-07-17T10:56:00.920Z,550.00
2023-07-17T10:57:00.889Z,555.00
2023-07-17T10:58:00.865Z,547.00
2023-07-17T10:59:00.829Z,555.00
2023-07-17T11:00:00.799Z,551.00
2023-07-17T11:01:00.773Z,547.00
2023-07-17T11:02:00.836Z,543.00
2023-07-17T11:03:00.747Z,528.00
2023-07-17T11:04:00.755Z,537.00
2023-07-17T11:05:00.676Z,533.00
2023-07-17T11:06:00.635Z,534.00
2023-07-17T11:07:00.605Z,528.00
2023-07-17T11:08:00.570Z,545.00
2023-07-17T11:09:00.536Z,532.00
2023-07-17T11:10:00.675Z,528.00
2023-07-17T11:11:00.480Z,536.00
2023-07-17T11:12:00.447Z,530.00
2023-07-17T11:13:00.418Z,542.00
2023-07-17T11:14:00.382Z,539.00
2023-07-17T11:15:00.362Z,526.00
2023-07-17T11:16:00.324Z,535.00
2023-07-17T11:17:00.376Z,533.00
2023-07-17T11:18:00.388Z,522.00
2023-07-17T11:19:00.235Z,524.00
2023-07-17T11:20:00.236Z,517.00
2023-07-17T11:21:00.189Z,515.00
2023-07-17T11:22:00.159Z,530.00
2023-07-17T11:23:00.169Z,518.00
2023-07-17T11:24:00.112Z,522.00
2023-07-17T11:25:00.088Z,512.00
2023-07-17T11:26:00.089Z,516.00
2023-07-17T11:27:00.016Z,518.00
2023-07-17T11:27:59.999Z,517.00
2023-07-17T11:28:59.969Z,511.00
2023-07-17T11:29:59.940Z,514.00
2023-07-17T11:30:59.908Z,517.00
2023-07-17T11:31:59.905Z,508.00
2023-07-17T11:32:59.929Z,512.00
2023-07-17T11:33:59.894Z,510.00
2023-07-17T11:34:59.799Z,504.00
2023-07-17T11:35:59.772Z,513.00
2023-07-17T11:36:59.751Z,506.00
2023-07-17T11:37:59.714Z,507.00
2023-07-17T11:38:59.701Z,509.00
2023-07-17T11:39:59.666Z,508.00
2023-07-17T11:40:59.654Z,506.00
2023-07-17T11:41:59.638Z,502.00
2023-07-17T11:42:59.585Z,505.00
2023-07-17T11:43:59.552Z,508.00
2023-07-17T11:44:59.526Z,509.00
2023-07-17T11:45:59.526Z,501.00
2023-07-17T11:46:59.491Z,501.00
2023-07-17T11:47:59.531Z,504.00
2023-07-17T11:48:59.437Z,513.00
2023-07-17T11:49:59.393Z,500.00
2023-07-17T11:50:59.352Z,512.00
2023-07-17T11:51:59.328Z,505.00
2023-07-17T11:52:59.314Z,500.00
2023-07-17T11:53:59.294Z,508.00
2023-07-17T11:54:59.283Z,503.00
2023-07-17T11:55:59.286Z,505.00
2023-07-17T11:56:59.327Z,504.00
2023-07-17T11:58:04.381Z,507.00
2023-07-17T11:58:59.345Z,508.00
2023-07-17T11:59:59.292Z,508.00
2023-07-17T12:00:59.289Z,508.00
2023-07-17T12:01:59.259Z,506.00
2023-07-17T12:02:59.257Z,505.00
2023-07-17T12:03:59.214Z,508.00
2023-07-17T12:04:59.125Z,507.00
2023-07-17T12:05:59.124Z,509.00
2023-07-17T12:06:59.098Z,507.00
2023-07-17T12:07:59.048Z,503.00
2023-07-17T12:08:59.009Z,509.00
2023-07-17T12:09:59.008Z,507.00
2023-07-17T12:10:58.943Z,506.00
2023-07-17T12:11:58.924Z,510.00
2023-07-17T12:12:58.889Z,504.00
2023-07-17T12:13:58.876Z,507.00
2023-07-17T12:14:58.832Z,505.00
2023-07-17T12:15:58.919Z,510.00
2023-07-17T12:16:58.785Z,500.00
2023-07-17T12:17:58.805Z,507.00
2023-07-17T12:18:58.719Z,509.00
2023-07-17T12:19:58.695Z,505.00
2023-07-17T12:20:58.675Z,506.00
2023-07-17T12:21:58.826Z,508.00
2023-07-17T12:22:58.662Z,509.00
2023-07-17T12:23:58.661Z,501.00
2023-07-17T12:24:58.697Z,517.00
2023-07-17T12:25:58.768Z,513.00
2023-07-17T12:26:59.635Z,507.00
2023-07-17T12:27:58.798Z,515.00